« Back
NWS Peachtree City, Ga » Text Product » CSG Terminal Aerodrome Forecast


Printer-friendly Version
Current Version              Previous Versions:   1  2  3  4  5  6  7  8  9  

Terminal Aerodrome Forecast

461
FTUS42 KFFC 292333
TAFCSG
TAF
KCSG 292333Z 3000/3024 19005KT P6SM FEW050
     FM300700 VRB03KT P6SM BKN035
     FM301200 22006KT P6SM BKN015
     FM301400 23008KT 5SM -RA BR SCT008 OVC012
     FM301700 29010KT P6SM SCT040
     FM302300 32005KT P6SM SKC=



USA.gov is the U.S. government's official web portal to all federal, state and local government web resources and services.